Time;durP1;ratioP1;P1;durP2;ratioP2;P2;SDS_P1;SDS_P2;PMS_P1;PMS_P2;Temp;Humidity;BMP_temperature;BMP_pressure;BME280_temperature;BME280_humidity;BME280_pressure;Samples;Min_cycle;Max_cycle;Signal;HPM_P1;HPM_P2
2021/05/06 00:07:10;;;;;;;13.20;8.57;;;6.30;99.90;;;;;;5088348;28;20431;-77
2021/05/06 00:31:03;;;;;;;11.07;7.53;;;5.90;99.90;;;;;;5072840;28;21008;-76
2021/05/06 00:33:24;;;;;;;8.90;7.40;;;5.80;99.90;;;;;;5071317;28;20427;-77
2021/05/06 00:35:50;;;;;;;11.57;8.47;;;5.80;99.90;;;;;;5071486;28;20436;-78
2021/05/06 00:38:26;;;;;;;9.93;9.00;;;5.30;99.90;;;;;;5072605;28;20254;-77
2021/05/06 00:56:51;;;;;;;11.00;8.70;;;5.10;99.90;;;;;;5074097;28;20421;-78
2021/05/06 01:09:43;;;;;;;10.23;8.17;;;5.20;99.90;;;;;;5033140;28;20295;-77
2021/05/06 01:12:09;;;;;;;11.37;8.10;;;5.20;99.90;;;;;;5072451;28;20428;-78
2021/05/06 01:14:34;;;;;;;8.30;7.50;;;5.00;99.90;;;;;;5072481;28;20528;-77
2021/05/06 01:17:00;;;;;;;11.63;8.03;;;4.90;99.90;;;;;;5071848;28;20280;-77
2021/05/06 01:19:26;;;;;;;12.03;8.43;;;5.00;99.90;;;;;;5071468;28;20169;-78
2021/05/06 01:21:56;;;;;;;8.50;7.07;;;4.90;99.90;;;;;;5070941;28;20202;-78
2021/05/06 01:24:22;;;;;;;9.20;7.47;;;5.00;99.90;;;;;;5057379;28;20231;-78
2021/05/06 01:29:21;;;;;;;9.57;7.47;;;4.90;99.90;;;;;;5073075;28;20456;-77
2021/05/06 01:32:02;;;;;;;7.90;6.33;;;4.80;99.90;;;;;;5073359;28;20177;-78
2021/05/06 01:34:28;;;;;;;9.00;6.70;;;4.80;99.90;;;;;;5072992;28;20451;-78
2021/05/06 01:37:07;;;;;;;11.90;7.40;;;4.70;99.90;;;;;;5057552;28;20484;-77
2021/05/06 01:42:24;;;;;;;10.53;6.70;;;4.70;99.90;;;;;;5076752;28;20426;-78
2021/05/06 01:47:41;;;;;;;16.00;8.60;;;4.30;99.90;;;;;;5077850;28;20461;-78
2021/05/06 01:50:22;;;;;;;6.57;5.70;;;4.30;99.90;;;;;;5058854;28;20448;-78
2021/05/06 01:58:36;;;;;;;8.87;5.73;;;4.20;99.90;;;;;;5074603;28;20422;-77
2021/05/06 02:01:05;;;;;;;8.03;6.43;;;4.30;99.90;;;;;;5073798;28;20416;-75
2021/05/06 02:03:31;;;;;;;10.20;6.27;;;4.20;99.90;;;;;;5074074;28;20447;-75
2021/05/06 02:05:57;;;;;;;6.47;5.77;;;4.30;99.90;;;;;;5073966;28;20510;-75
2021/05/06 02:08:23;;;;;;;6.30;4.87;;;4.30;99.90;;;;;;5057182;28;20455;-74
2021/05/06 02:10:49;;;;;;;6.30;4.70;;;4.30;99.90;;;;;;5075143;28;20448;-75
2021/05/06 02:13:15;;;;;;;7.27;6.10;;;4.20;99.90;;;;;;5068771;28;20180;-75
2021/05/06 02:15:47;;;;;;;9.20;4.83;;;4.30;99.90;;;;;;5072119;28;20429;-75
2021/05/06 02:18:15;;;;;;;5.27;4.70;;;4.40;99.90;;;;;;5072862;28;20471;-75
2021/05/06 02:20:40;;;;;;;5.37;3.97;;;4.40;99.90;;;;;;5073514;28;20420;-75
2021/05/06 02:23:06;;;;;;;4.53;3.80;;;4.50;99.90;;;;;;5074177;28;20435;-75
2021/05/06 02:25:32;;;;;;;5.43;4.50;;;4.40;99.90;;;;;;5073818;28;20201;-75
2021/05/06 02:27:57;;;;;;;6.77;4.00;;;4.30;99.90;;;;;;5072202;28;20668;-75
2021/05/06 02:30:23;;;;;;;7.60;4.30;;;4.20;99.90;;;;;;5073901;28;20205;-75
2021/05/06 02:32:49;;;;;;;8.23;4.73;;;4.30;99.90;;;;;;5073628;28;20174;-75
2021/05/06 02:35:14;;;;;;;6.60;4.17;;;4.20;99.90;;;;;;5073858;28;20205;-75
2021/05/06 02:37:40;;;;;;;7.80;3.60;;;4.20;99.90;;;;;;5074392;28;20216;-75
2021/05/06 02:40:08;;;;;;;6.50;4.40;;;4.20;99.90;;;;;;5072996;28;20178;-75
2021/05/06 02:42:34;;;;;;;11.53;4.20;;;4.40;99.90;;;;;;5066188;28;20820;-74
2021/05/06 02:45:00;;;;;;;6.00;3.80;;;4.30;99.90;;;;;;5060072;28;20447;-76
2021/05/06 02:47:26;;;;;;;7.20;3.90;;;4.30;99.90;;;;;;5072363;28;20952;-76
2021/05/06 02:49:52;;;;;;;7.63;4.20;;;4.30;99.90;;;;;;5073001;28;20455;-76
2021/05/06 02:52:38;;;;;;;5.30;3.73;;;4.40;99.90;;;;;;5073149;28;20420;-76
2021/05/06 02:55:30;;;;;;;4.90;3.60;;;4.40;99.90;;;;;;5055185;28;20444;-76
2021/05/06 02:58:00;;;;;;;5.83;3.50;;;4.50;99.90;;;;;;5072386;28;20451;-76
2021/05/06 03:03:10;;;;;;;5.33;3.60;;;4.60;99.90;;;;;;5073240;28;20408;-76
2021/05/06 03:05:37;;;;;;;2.93;2.40;;;4.50;99.90;;;;;;5057168;28;20794;-77
2021/05/06 03:13:34;;;;;;;6.53;3.63;;;4.70;99.90;;;;;;5075547;28;20420;-77
2021/05/06 03:24:12;;;;;;;7.33;4.13;;;4.70;99.90;;;;;;5072563;28;20482;-76
2021/05/06 03:26:37;;;;;;;4.17;3.20;;;4.80;99.90;;;;;;5070147;28;20481;-76
2021/05/06 03:29:10;;;;;;;8.97;4.07;;;4.70;99.90;;;;;;5073955;28;20467;-76
2021/05/06 03:32:02;;;;;;;4.60;3.60;;;4.70;99.90;;;;;;5073279;28;20162;-76
2021/05/06 03:34:42;;;;;;;6.00;3.10;;;4.70;99.90;;;;;;5072653;28;20462;-76
2021/05/06 03:42:41;;;;;;;7.33;3.20;;;4.90;99.90;;;;;;5074446;28;20940;-76
2021/05/06 04:17:38;;;;;;;4.57;2.83;;;5.20;99.90;;;;;;5068131;28;20423;-77
2021/05/06 04:30:47;;;;;;;5.10;2.93;;;5.60;99.90;;;;;;5071905;28;20205;-77
2021/05/06 04:36:09;;;;;;;5.63;3.17;;;5.80;99.90;;;;;;5072104;28;20438;-78
2021/05/06 04:38:35;;;;;;;7.00;3.10;;;5.80;99.90;;;;;;5073147;28;20847;-78
2021/05/06 04:41:32;;;;;;;19.23;11.60;;;5.90;99.90;;;;;;5073276;28;20484;-78
2021/05/06 04:45:05;;;;;;;9.80;4.07;;;6.00;99.90;;;;;;5057125;28;20221;-78
2021/05/06 04:50:18;;;;;;;5.70;4.30;;;6.10;99.90;;;;;;5073348;28;20582;-77
2021/05/06 04:55:24;;;;;;;6.43;3.63;;;6.30;99.90;;;;;;5073762;28;20837;-78
2021/05/06 05:06:05;;;;;;;6.23;2.93;;;6.40;99.90;;;;;;5028642;28;20431;-78
2021/05/06 05:08:38;;;;;;;8.33;3.53;;;6.40;99.90;;;;;;5071463;28;20538;-77
2021/05/06 05:14:01;;;;;;;7.20;4.40;;;6.60;99.90;;;;;;5075078;28;20440;-78
2021/05/06 05:19:34;;;;;;;9.10;4.00;;;6.80;99.90;;;;;;5071775;28;20515;-77
2021/05/06 05:27:09;;;;;;;5.40;3.87;;;7.10;99.90;;;;;;5074676;28;20424;-78
2021/05/06 05:29:34;;;;;;;7.03;4.30;;;7.20;99.90;;;;;;5074409;28;20186;-77
2021/05/06 05:32:01;;;;;;;9.07;4.23;;;7.10;99.90;;;;;;5075254;28;20166;-78
2021/05/06 05:34:38;;;;;;;6.50;4.53;;;7.20;99.90;;;;;;5075630;28;20190;-76
2021/05/06 05:37:03;;;;;;;9.47;5.20;;;7.10;99.90;;;;;;5074739;28;20416;-77
2021/05/06 05:39:40;;;;;;;7.03;5.13;;;7.10;99.90;;;;;;5074508;28;21049;-77
2021/05/06 05:42:19;;;;;;;5.13;4.37;;;7.00;99.90;;;;;;5056895;28;20262;-77
2021/05/06 05:55:41;;;;;;;10.13;5.70;;;7.40;99.90;;;;;;5074443;28;20418;-77
2021/05/06 05:58:07;;;;;;;7.87;4.00;;;7.40;99.90;;;;;;5074536;28;20420;-77
2021/05/06 06:00:33;;;;;;;5.27;3.93;;;7.40;99.90;;;;;;5074675;28;20167;-77
2021/05/06 06:02:58;;;;;;;4.93;3.53;;;7.30;99.90;;;;;;5056653;28;20203;-77
2021/05/06 06:05:24;;;;;;;3.60;3.27;;;7.40;99.90;;;;;;5058810;28;20194;-77
2021/05/06 06:07:50;;;;;;;5.47;3.97;;;7.60;99.90;;;;;;5074757;28;20605;-77
2021/05/06 06:10:15;;;;;;;5.00;3.60;;;7.80;99.90;;;;;;5074808;28;20448;-77
2021/05/06 06:12:41;;;;;;;9.90;4.73;;;8.10;99.90;;;;;;5074828;28;20520;-78
2021/05/06 06:15:11;;;;;;;6.10;3.80;;;8.40;99.90;;;;;;5062091;28;20663;-78
2021/05/06 06:17:41;;;;;;;7.80;3.43;;;8.80;99.90;;;;;;5074850;28;20173;-77
2021/05/06 06:20:07;;;;;;;4.73;3.13;;;9.30;99.90;;;;;;5073924;28;20421;-77
2021/05/06 06:22:32;;;;;;;6.03;3.13;;;9.50;99.90;;;;;;5073751;28;20428;-77
2021/05/06 06:25:01;;;;;;;5.83;4.40;;;9.70;99.90;;;;;;5072468;28;20738;-77
2021/05/06 06:27:27;;;;;;;6.23;3.70;;;9.70;99.90;;;;;;5073788;28;20253;-77
2021/05/06 06:29:53;;;;;;;3.67;3.37;;;9.60;99.90;;;;;;5073376;28;20589;-78
2021/05/06 06:32:19;;;;;;;3.50;3.20;;;9.80;99.90;;;;;;5057088;28;20423;-79
2021/05/06 06:34:44;;;;;;;3.70;2.90;;;9.50;99.90;;;;;;5060525;28;20225;-78
2021/05/06 06:37:10;;;;;;;3.53;3.23;;;9.60;99.90;;;;;;5077162;28;20173;-78
2021/05/06 06:39:39;;;;;;;3.90;3.20;;;9.90;99.90;;;;;;5076797;28;20170;-76
2021/05/06 06:42:08;;;;;;;3.37;2.73;;;9.90;99.90;;;;;;5074582;28;20287;-77
2021/05/06 06:44:35;;;;;;;8.60;3.80;;;9.90;99.90;;;;;;5063007;28;20440;-77
2021/05/06 06:47:01;;;;;;;6.00;3.07;;;9.90;99.90;;;;;;5060569;28;20863;-78
2021/05/06 06:49:38;;;;;;;5.10;3.87;;;10.00;99.90;;;;;;5073423;28;20451;-77
2021/05/06 06:52:05;;;;;;;10.63;3.63;;;10.30;99.90;;;;;;5074249;28;20424;-77
2021/05/06 06:54:31;;;;;;;4.90;3.17;;;10.60;99.90;;;;;;5074012;28;20467;-78
2021/05/06 06:56:57;;;;;;;12.63;3.90;;;10.70;99.90;;;;;;5075234;28;20413;-78
2021/05/06 06:59:22;;;;;;;3.47;2.80;;;10.70;99.90;;;;;;5077706;28;20263;-78
2021/05/06 07:01:48;;;;;;;4.70;3.20;;;11.10;99.90;;;;;;5075396;28;20179;-78
2021/05/06 07:04:14;;;;;;;7.17;2.90;;;11.30;99.90;;;;;;5062987;28;20450;-78
2021/05/06 07:06:40;;;;;;;4.70;3.13;;;11.40;99.90;;;;;;5082350;28;20669;-78
2021/05/06 07:09:08;;;;;;;5.77;3.07;;;11.50;99.90;;;;;;5083193;28;20452;-78
2021/05/06 07:11:35;;;;;;;9.80;3.10;;;11.60;99.90;;;;;;5078907;28;20173;-78
2021/05/06 07:14:00;;;;;;;3.33;2.80;;;11.70;99.90;;;;;;5085231;28;20459;-78
2021/05/06 07:16:26;;;;;;;4.83;3.67;;;11.90;99.90;;;;;;5068834;28;20427;-78
2021/05/06 07:18:51;;;;;;;4.33;3.40;;;12.20;99.90;;;;;;5067241;28;20186;-78
2021/05/06 07:21:17;;;;;;;3.80;3.00;;;12.70;99.90;;;;;;5086423;28;20173;-78
2021/05/06 07:23:43;;;;;;;7.87;2.77;;;12.70;99.90;;;;;;5085462;28;20193;-78
2021/05/06 07:26:08;;;;;;;7.20;2.87;;;12.50;99.90;;;;;;5068926;28;20212;-78
2021/05/06 07:28:36;;;;;;;5.80;2.70;;;12.30;99.90;;;;;;5068248;28;20209;-79
2021/05/06 07:31:03;;;;;;;6.43;2.87;;;12.70;99.90;;;;;;5067973;28;20189;-78
2021/05/06 07:33:30;;;;;;;9.13;3.23;;;12.90;99.90;;;;;;5077053;28;20452;-77
2021/05/06 07:35:57;;;;;;;3.20;2.37;;;13.00;99.90;;;;;;5072228;28;20976;-78
2021/05/06 07:38:23;;;;;;;4.57;2.97;;;13.40;99.90;;;;;;5077316;28;20507;-79
2021/05/06 07:40:49;;;;;;;4.97;2.30;;;13.70;99.90;;;;;;5071946;28;20436;-78
2021/05/06 07:43:15;;;;;;;5.77;2.20;;;13.90;99.90;;;;;;5092778;28;20174;-79
2021/05/06 07:45:40;;;;;;;4.60;2.80;;;14.70;99.90;;;;;;5092375;28;20426;-79
2021/05/06 07:48:06;;;;;;;5.80;3.03;;;14.50;99.90;;;;;;5071887;28;20197;-78
2021/05/06 07:50:32;;;;;;;6.37;2.60;;;14.00;99.90;;;;;;5085602;28;20174;-78
2021/05/06 07:53:09;;;;;;;3.00;2.50;;;14.30;99.90;;;;;;5071373;28;20412;-78
2021/05/06 07:55:35;;;;;;;3.90;3.50;;;13.10;99.90;;;;;;5084248;28;20203;-78
2021/05/06 07:58:02;;;;;;;3.70;3.00;;;13.10;99.90;;;;;;5082827;28;20507;-78
2021/05/06 08:00:29;;;;;;;2.70;2.30;;;12.70;99.90;;;;;;5063117;28;20422;-78
2021/05/06 08:02:55;;;;;;;5.17;3.43;;;12.90;99.90;;;;;;5076985;28;20454;-78
2021/05/06 08:05:21;;;;;;;3.47;3.13;;;12.40;99.90;;;;;;5080337;28;20458;-78
2021/05/06 08:07:46;;;;;;;5.63;2.60;;;12.10;99.90;;;;;;5077555;28;21826;-78
2021/05/06 08:10:13;;;;;;;5.73;3.20;;;11.80;99.90;;;;;;5057441;28;20201;-78
2021/05/06 08:12:39;;;;;;;5.20;2.67;;;11.90;99.90;;;;;;5060339;28;20177;-78
2021/05/06 08:15:08;;;;;;;2.93;2.27;;;12.00;99.90;;;;;;5078726;28;20811;-78
2021/05/06 08:17:38;;;;;;;4.80;2.87;;;12.60;99.90;;;;;;5063035;28;22072;-78
2021/05/06 08:20:07;;;;;;;2.90;2.20;;;13.50;99.90;;;;;;5065807;28;20642;-78
2021/05/06 08:22:33;;;;;;;2.43;2.23;;;13.60;99.90;;;;;;5080899;28;20507;-78
2021/05/06 08:24:58;;;;;;;3.47;1.77;;;13.90;99.90;;;;;;5069895;28;20452;-79
2021/05/06 08:27:24;;;;;;;3.57;2.27;;;14.70;99.90;;;;;;5066218;28;20626;-79
2021/05/06 08:29:50;;;;;;;4.23;2.23;;;15.20;99.90;;;;;;5055216;28;20205;-77
2021/05/06 08:32:15;;;;;;;3.40;2.93;;;15.20;99.90;;;;;;5055878;28;20185;-77
2021/05/06 08:34:41;;;;;;;6.13;3.23;;;15.60;99.90;;;;;;5056958;28;20212;-77
2021/05/06 08:37:07;;;;;;;7.33;6.60;;;16.20;99.90;;;;;;5058176;28;20170;-77
2021/05/06 08:39:32;;;;;;;7.63;2.60;;;16.30;99.90;;;;;;5054613;28;20231;-77
2021/05/06 08:41:59;;;;;;;10.90;7.93;;;16.30;95.00;;;;;;5073289;28;20177;-77
2021/05/06 08:44:29;;;;;;;3.90;2.43;;;16.00;92.30;;;;;;5072079;28;20217;-78
2021/05/06 08:47:06;;;;;;;4.30;2.33;;;15.40;93.70;;;;;;5057997;28;20428;-77
2021/05/06 08:49:34;;;;;;;5.20;2.70;;;16.20;99.30;;;;;;5078150;28;20439;-77
2021/05/06 08:52:01;;;;;;;3.20;2.03;;;16.60;91.00;;;;;;5060982;28;20497;-77
2021/05/06 08:54:27;;;;;;;2.20;2.00;;;16.40;89.90;;;;;;5061780;28;20440;-77
2021/05/06 08:56:53;;;;;;;7.17;2.73;;;16.70;92.00;;;;;;5066369;28;20410;-77
2021/05/06 08:59:19;;;;;;;4.73;2.03;;;17.10;91.10;;;;;;5060749;28;20431;-77
2021/05/06 09:01:46;;;;;;;4.30;2.07;;;17.10;85.80;;;;;;5079295;28;20408;-77
2021/05/06 09:04:12;;;;;;;2.60;2.17;;;16.90;80.00;;;;;;5060826;28;20451;-77
2021/05/06 09:06:52;;;;;;;2.63;1.80;;;17.00;82.10;;;;;;5064939;28;20424;-77
2021/05/06 09:09:17;;;;;;;3.47;2.60;;;16.70;90.10;;;;;;5085683;28;20194;-78
2021/05/06 09:11:43;;;;;;;4.27;1.83;;;16.80;76.90;;;;;;5081435;28;20420;-78
2021/05/06 09:14:10;;;;;;;3.50;1.80;;;16.70;73.30;;;;;;5077556;28;20191;-78
2021/05/06 09:16:39;;;;;;;1.90;1.70;;;16.20;70.20;;;;;;5059905;28;20948;-78
2021/05/06 09:19:13;;;;;;;2.53;1.90;;;17.00;73.70;;;;;;5059640;28;20421;-77
2021/05/06 09:21:45;;;;;;;5.77;1.90;;;17.10;76.40;;;;;;5058438;28;20450;-77
2021/05/06 09:24:19;;;;;;;3.53;2.23;;;16.90;72.90;;;;;;5058047;28;20558;-78
2021/05/06 09:26:45;;;;;;;2.10;1.53;;;16.50;69.60;;;;;;5074558;28;20507;-78
2021/05/06 09:29:11;;;;;;;4.30;2.00;;;16.90;72.80;;;;;;5059240;28;20547;-78
2021/05/06 09:31:41;;;;;;;3.93;1.60;;;16.70;66.80;;;;;;5059750;28;20166;-78
2021/05/06 09:34:09;;;;;;;3.10;1.70;;;16.40;66.10;;;;;;5059547;28;20967;-78
2021/05/06 09:36:37;;;;;;;2.10;1.67;;;16.90;71.00;;;;;;5058520;28;20953;-79
2021/05/06 09:39:07;;;;;;;4.23;1.50;;;17.10;68.70;;;;;;5059156;28;20436;-77
2021/05/06 09:41:35;;;;;;;6.93;1.90;;;16.70;65.10;;;;;;5055788;28;20434;-79
2021/05/06 09:44:16;;;;;;;4.20;1.80;;;17.20;70.60;;;;;;5078181;28;20424;-79
2021/05/06 09:46:55;;;;;;;1.53;1.43;;;18.10;72.40;;;;;;5059014;28;20412;-78
2021/05/06 09:49:22;;;;;;;7.50;1.70;;;18.70;63.90;;;;;;5078318;28;20519;-79
2021/05/06 09:51:59;;;;;;;5.20;1.77;;;18.60;60.80;;;;;;5078004;28;20409;-78
2021/05/06 09:54:28;;;;;;;3.60;1.67;;;18.20;58.50;;;;;;5092970;28;20451;-79
2021/05/06 09:57:02;;;;;;;1.50;1.17;;;18.20;57.50;;;;;;5065063;28;20478;-79
2021/05/06 09:59:30;;;;;;;2.80;1.43;;;18.80;60.30;;;;;;5058637;28;20448;-78
2021/05/06 10:02:14;;;;;;;5.70;1.50;;;17.50;51.50;;;;;;5058288;28;20981;-79
2021/05/06 10:04:45;;;;;;;4.50;1.47;;;17.40;55.20;;;;;;5060919;28;21226;-79
2021/05/06 10:07:22;;;;;;;1.60;1.50;;;17.80;55.10;;;;;;5059232;28;20522;-79
2021/05/06 10:10:13;;;;;;;2.40;1.77;;;18.70;54.40;;;;;;5059890;28;21049;-79
2021/05/06 10:12:39;;;;;;;3.00;1.70;;;19.30;57.10;;;;;;5075674;28;20432;-79
2021/05/06 10:15:07;;;;;;;4.17;2.07;;;19.20;54.90;;;;;;5059776;28;20421;-79
2021/05/06 10:17:33;;;;;;;1.90;1.67;;;18.80;52.90;;;;;;5077777;28;20508;-79
2021/05/06 10:20:00;;;;;;;2.70;1.57;;;19.30;54.70;;;;;;5076229;28;20462;-78
2021/05/06 10:22:28;;;;;;;4.47;1.87;;;19.60;55.20;;;;;;5059177;28;20257;-79
2021/05/06 10:24:54;;;;;;;3.77;1.83;;;19.50;55.10;;;;;;5059491;28;20448;-79
2021/05/06 10:27:22;;;;;;;4.17;1.77;;;19.30;53.40;;;;;;5077881;28;20949;-79
2021/05/06 10:29:52;;;;;;;4.10;2.30;;;19.30;54.10;;;;;;5057622;28;20471;-79
2021/05/06 10:32:18;;;;;;;2.70;1.80;;;19.60;53.60;;;;;;5058840;28;20452;-78
2021/05/06 10:34:47;;;;;;;4.17;1.50;;;19.70;52.10;;;;;;5058926;28;20527;-79
2021/05/06 10:37:13;;;;;;;7.03;1.90;;;19.20;52.60;;;;;;5076351;28;20170;-79
2021/05/06 10:39:39;;;;;;;6.57;5.10;;;19.70;55.80;;;;;;5058150;28;20412;-79
2021/05/06 10:42:29;;;;;;;16.13;14.10;;;19.70;54.50;;;;;;5074389;28;20804;-79
2021/05/06 10:45:01;;;;;;;2.10;1.90;;;19.40;50.10;;;;;;5065918;28;20614;-79
2021/05/06 10:47:50;;;;;;;2.80;1.63;;;19.70;47.30;;;;;;5061045;28;20430;-78
2021/05/06 10:50:18;;;;;;;3.57;2.33;;;19.70;50.70;;;;;;5067197;28;20832;-78
2021/05/06 10:52:50;;;;;;;3.60;1.70;;;19.50;53.30;;;;;;5059652;28;20413;-77
2021/05/06 10:55:46;;;;;;;1.87;1.47;;;19.70;52.60;;;;;;5073711;28;20482;-77
2021/05/06 10:58:27;;;;;;;2.23;1.80;;;19.30;47.40;;;;;;5066278;28;20467;-77
2021/05/06 11:01:13;;;;;;;2.10;1.70;;;18.30;47.60;;;;;;5076341;28;20411;-78
2021/05/06 11:03:40;;;;;;;1.70;1.57;;;18.30;53.20;;;;;;5074173;28;20443;-78
2021/05/06 11:06:06;;;;;;;5.83;2.30;;;17.70;48.70;;;;;;5059322;28;20416;-78
2021/05/06 11:08:34;;;;;;;2.87;2.00;;;17.90;50.80;;;;;;5053771;28;20452;-76
2021/05/06 11:11:00;;;;;;;1.57;1.47;;;17.90;49.30;;;;;;5056724;28;20518;-76
2021/05/06 11:13:27;;;;;;;3.80;2.00;;;18.10;52.10;;;;;;5057105;28;20424;-77
2021/05/06 11:16:12;;;;;;;2.30;1.80;;;17.40;48.40;;;;;;5057096;28;20170;-76
2021/05/06 11:18:49;;;;;;;2.57;2.20;;;17.60;54.00;;;;;;5055024;28;20984;-77
2021/05/06 11:21:30;;;;;;;5.07;1.97;;;17.80;54.60;;;;;;5073090;28;20407;-77
2021/05/06 11:24:17;;;;;;;2.60;1.77;;;18.10;55.30;;;;;;5052836;28;20486;-76
2021/05/06 11:27:07;;;;;;;2.67;2.03;;;18.40;53.50;;;;;;5073847;28;20416;-77
2021/05/06 11:29:34;;;;;;;3.30;2.03;;;18.20;53.40;;;;;;5072496;28;20448;-76
2021/05/06 11:32:00;;;;;;;1.93;1.80;;;17.60;50.40;;;;;;5050704;28;20468;-82
2021/05/06 11:34:32;;;;;;;5.23;2.03;;;17.30;51.50;;;;;;5055836;28;20993;-78
2021/05/06 11:37:11;;;;;;;3.80;2.03;;;17.30;52.50;;;;;;5053127;28;20185;-78
2021/05/06 11:39:55;;;;;;;2.33;1.40;;;17.30;53.80;;;;;;5051424;28;20432;-78
2021/05/06 11:42:22;;;;;;;3.10;2.10;;;16.90;53.30;;;;;;5051886;28;20501;-78
2021/05/06 11:45:08;;;;;;;2.03;1.80;;;16.10;51.50;;;;;;5075414;28;20479;-78
2021/05/06 11:47:34;;;;;;;3.03;2.00;;;15.60;52.60;;;;;;5074642;28;20559;-77
2021/05/06 11:49:59;;;;;;;5.03;2.33;;;15.10;52.80;;;;;;5059306;28;20558;-78
2021/05/06 11:52:33;;;;;;;12.50;7.03;;;14.80;53.90;;;;;;5072999;28;20178;-78
2021/05/06 11:54:58;;;;;;;5.67;2.17;;;14.70;55.40;;;;;;5077849;28;20277;-78
2021/05/06 11:57:25;;;;;;;2.40;1.57;;;14.90;54.40;;;;;;5085308;28;20868;-78
2021/05/06 11:59:50;;;;;;;5.03;1.80;;;15.00;55.80;;;;;;5066419;28;20184;-78
2021/05/06 12:02:16;;;;;;;3.30;2.00;;;15.30;56.50;;;;;;5094559;28;20478;-78
2021/05/06 12:04:44;;;;;;;4.53;2.67;;;15.70;58.20;;;;;;5096353;28;20189;-78
2021/05/06 12:07:22;;;;;;;3.90;2.10;;;16.00;59.30;;;;;;5079559;28;20182;-79
2021/05/06 12:09:49;;;;;;;2.40;1.87;;;16.10;58.50;;;;;;5079471;28;20469;-78
2021/05/06 12:12:26;;;;;;;2.30;1.57;;;16.20;57.80;;;;;;5062826;28;20426;-78
2021/05/06 12:14:57;;;;;;;8.33;1.97;;;16.50;59.80;;;;;;5077627;28;20525;-79
2021/05/06 12:17:23;;;;;;;2.60;1.70;;;16.40;58.10;;;;;;5075091;28;20435;-79
2021/05/06 12:19:49;;;;;;;3.30;2.73;;;16.40;58.80;;;;;;5092164;28;20816;-79
2021/05/06 12:22:16;;;;;;;3.33;2.03;;;16.50;58.70;;;;;;5061910;28;20251;-79
2021/05/06 12:24:53;;;;;;;3.33;2.00;;;16.60;59.20;;;;;;5075070;28;20447;-79
2021/05/06 12:27:26;;;;;;;3.57;2.30;;;16.90;58.90;;;;;;5073163;28;20818;-79
2021/05/06 12:29:58;;;;;;;4.43;2.00;;;17.00;58.60;;;;;;5092305;28;20447;-79
2021/05/06 12:32:29;;;;;;;4.53;1.87;;;17.20;58.10;;;;;;5076304;28;21074;-79
2021/05/06 12:34:55;;;;;;;5.20;2.40;;;17.30;58.90;;;;;;5094564;28;20444;-79
2021/05/06 12:37:25;;;;;;;3.53;1.90;;;17.30;55.40;;;;;;5075650;28;20434;-79
2021/05/06 12:39:51;;;;;;;4.43;1.80;;;17.30;56.60;;;;;;5075654;28;20411;-79
2021/05/06 12:42:30;;;;;;;6.97;1.90;;;17.30;55.30;;;;;;5092268;28;20790;-80
2021/05/06 12:44:56;;;;;;;2.27;2.07;;;17.50;56.00;;;;;;5077317;28;20521;-79
2021/05/06 12:47:34;;;;;;;4.83;1.87;;;17.20;54.00;;;;;;5093623;28;20451;-79
2021/05/06 12:50:14;;;;;;;2.87;2.10;;;17.30;54.20;;;;;;5093494;28;20459;-79
2021/05/06 12:52:42;;;;;;;3.57;1.60;;;17.50;54.70;;;;;;5073367;28;20488;-79
2021/05/06 12:55:25;;;;;;;13.67;2.87;;;17.60;56.40;;;;;;5095033;28;20487;-79
2021/05/06 12:58:17;;;;;;;1.80;1.70;;;17.30;52.90;;;;;;5074919;28;20427;-79
2021/05/06 13:00:44;;;;;;;2.10;1.90;;;17.40;54.20;;;;;;5075439;28;20434;-79
2021/05/06 13:03:12;;;;;;;2.50;1.77;;;17.30;54.70;;;;;;5077111;28;20411;-78
2021/05/06 13:05:42;;;;;;;2.37;2.17;;;17.20;53.90;;;;;;5071283;28;20508;-79
2021/05/06 13:08:07;;;;;;;2.57;1.90;;;17.10;54.20;;;;;;5056542;28;20404;-79
2021/05/06 13:10:34;;;;;;;3.50;2.50;;;16.90;55.20;;;;;;5094753;28;20458;-80
2021/05/06 13:13:01;;;;;;;3.40;2.00;;;16.50;54.70;;;;;;5057843;28;20197;-79
2021/05/06 13:15:27;;;;;;;2.40;1.80;;;16.70;55.80;;;;;;5085476;28;20810;-79
2021/05/06 13:17:55;;;;;;;5.00;2.20;;;16.60;54.20;;;;;;5077412;28;20461;-80
2021/05/06 13:20:23;;;;;;;4.00;1.87;;;16.60;56.20;;;;;;5086394;28;20424;-79
2021/05/06 13:23:04;;;;;;;4.50;1.77;;;16.60;55.20;;;;;;5076036;28;20405;-79
2021/05/06 13:25:43;;;;;;;3.60;1.80;;;16.30;56.60;;;;;;5038317;28;20425;-80
2021/05/06 13:28:13;;;;;;;3.00;1.90;;;16.30;56.80;;;;;;5056313;28;20397;-80
2021/05/06 13:30:38;;;;;;;1.93;1.73;;;16.10;57.30;;;;;;5059660;28;20521;-80
2021/05/06 13:33:08;;;;;;;2.90;2.30;;;15.90;56.60;;;;;;5095738;28;20451;-79
2021/05/06 13:35:34;;;;;;;2.83;2.07;;;15.80;58.20;;;;;;5069515;28;20202;-79
2021/05/06 13:37:59;;;;;;;2.23;2.03;;;15.70;57.90;;;;;;5077942;28;20747;-78
2021/05/06 13:40:25;;;;;;;2.67;2.20;;;15.60;58.30;;;;;;5058788;28;20216;-78
2021/05/06 13:42:51;;;;;;;2.93;1.87;;;15.50;59.70;;;;;;5097463;28;20170;-79
2021/05/06 13:45:16;;;;;;;7.93;2.73;;;15.40;60.50;;;;;;5097098;28;20182;-79
2021/05/06 13:47:47;;;;;;;2.33;1.83;;;15.40;60.90;;;;;;5054778;28;20179;-79
2021/05/06 13:50:13;;;;;;;4.90;2.33;;;15.30;64.00;;;;;;5049752;28;20216;-79
2021/05/06 13:52:39;;;;;;;6.30;2.30;;;15.20;66.00;;;;;;5058149;28;20416;-80
2021/05/06 13:55:05;;;;;;;3.80;2.03;;;15.40;65.10;;;;;;5080181;28;20453;-80
2021/05/06 13:57:32;;;;;;;4.80;2.07;;;15.40;66.90;;;;;;5062406;28;20220;-80
2021/05/06 13:59:58;;;;;;;3.07;2.00;;;15.30;68.50;;;;;;5065628;28;20190;-79
2021/05/06 14:02:27;;;;;;;2.93;1.77;;;15.30;69.00;;;;;;5083402;28;20444;-80
2021/05/06 14:04:53;;;;;;;3.30;2.37;;;15.00;64.70;;;;;;5065586;28;20205;-79
2021/05/06 14:07:18;;;;;;;2.20;1.60;;;14.80;69.10;;;;;;5066203;28;20968;-78
2021/05/06 14:09:44;;;;;;;2.10;1.90;;;14.40;70.90;;;;;;5065650;28;20205;-79
2021/05/06 14:12:10;;;;;;;54.80;39.90;;;14.10;68.50;;;;;;5075544;28;20173;-79
2021/05/06 14:14:36;;;;;;;5.60;2.47;;;13.80;70.90;;;;;;5074314;28;20197;-79
2021/05/06 14:17:01;;;;;;;2.80;1.90;;;13.70;73.80;;;;;;5099319;28;20780;-80
2021/05/06 14:19:27;;;;;;;4.23;1.90;;;13.60;78.70;;;;;;5070418;28;20182;-80
2021/05/06 14:21:54;;;;;;;3.33;1.80;;;13.10;83.50;;;;;;5059274;28;21072;-79
2021/05/06 14:24:20;;;;;;;2.37;1.90;;;12.90;86.60;;;;;;5063785;28;20597;-79
2021/05/06 14:26:48;;;;;;;3.47;1.70;;;13.10;92.40;;;;;;5057793;28;20429;-78
2021/05/06 14:29:15;;;;;;;3.17;1.60;;;12.90;92.60;;;;;;5081690;28;20347;-79
2021/05/06 14:31:41;;;;;;;3.00;1.70;;;12.90;92.30;;;;;;5079451;28;20988;-79
2021/05/06 14:34:06;;;;;;;1.93;1.50;;;13.00;98.40;;;;;;5063404;28;20453;-79
2021/05/06 14:36:35;;;;;;;2.10;1.90;;;13.10;97.80;;;;;;5061866;28;20637;-79
2021/05/06 14:39:02;;;;;;;2.53;2.00;;;13.10;96.30;;;;;;5075326;28;20170;-79
2021/05/06 14:41:29;;;;;;;3.00;2.80;;;13.40;96.80;;;;;;5075116;28;20450;-79
2021/05/06 14:43:56;;;;;;;3.47;2.00;;;13.40;96.70;;;;;;5079477;28;20451;-80
2021/05/06 14:46:21;;;;;;;3.73;2.83;;;13.10;95.00;;;;;;5086001;28;20519;-79
2021/05/06 14:48:47;;;;;;;3.20;2.30;;;13.20;97.10;;;;;;5079831;28;20447;-79
2021/05/06 14:51:13;;;;;;;3.70;2.50;;;13.40;99.90;;;;;;5064739;28;20434;-80
2021/05/06 14:53:38;;;;;;;4.17;1.80;;;13.60;99.90;;;;;;5069476;28;20209;-79
2021/05/06 14:56:04;;;;;;;2.77;2.17;;;13.60;99.90;;;;;;5079663;28;20196;-78
2021/05/06 14:58:31;;;;;;;2.70;2.20;;;13.70;99.90;;;;;;5081611;28;20203;-79
2021/05/06 15:00:57;;;;;;;3.10;2.67;;;13.80;99.90;;;;;;5091213;28;20992;-79
2021/05/06 15:03:23;;;;;;;3.20;2.63;;;13.80;99.90;;;;;;5062837;28;20514;-78
2021/05/06 15:05:48;;;;;;;3.40;3.00;;;13.90;99.90;;;;;;5062448;28;20511;-80
2021/05/06 15:08:14;;;;;;;3.20;2.43;;;13.50;99.90;;;;;;5077495;28;20175;-78
2021/05/06 15:10:40;;;;;;;7.23;2.97;;;13.60;99.90;;;;;;5053339;28;20214;-80
2021/05/06 15:13:05;;;;;;;5.37;2.27;;;13.60;99.90;;;;;;5054891;28;20228;-79
2021/05/06 15:15:31;;;;;;;4.70;2.70;;;13.60;99.90;;;;;;5052727;28;20236;-79
2021/05/06 15:17:58;;;;;;;3.63;2.30;;;13.50;99.90;;;;;;5054803;28;20174;-78
2021/05/06 15:20:24;;;;;;;5.07;2.60;;;13.50;99.90;;;;;;5053446;28;20555;-78
2021/05/06 15:22:51;;;;;;;2.43;2.23;;;13.50;99.90;;;;;;5084827;28;20458;-79
2021/05/06 15:25:16;;;;;;;3.63;2.27;;;13.50;99.90;;;;;;5079258;28;20202;-79
2021/05/06 15:27:44;;;;;;;4.30;2.40;;;13.50;99.90;;;;;;5092447;28;20415;-79
2021/05/06 15:30:12;;;;;;;3.90;2.47;;;13.50;99.90;;;;;;5074606;28;20525;-79
2021/05/06 15:32:38;;;;;;;3.37;3.07;;;13.40;99.90;;;;;;5061814;28;20455;-80
2021/05/06 15:35:05;;;;;;;10.03;8.60;;;13.20;99.90;;;;;;5074359;28;20493;-78
2021/05/06 15:37:31;;;;;;;5.37;2.73;;;12.90;99.90;;;;;;5062581;28;20174;-78
2021/05/06 15:39:56;;;;;;;3.03;1.87;;;12.80;99.90;;;;;;5051963;28;20782;-79
2021/05/06 15:42:23;;;;;;;3.23;2.87;;;13.00;99.90;;;;;;5053579;28;20202;-78
2021/05/06 15:44:48;;;;;;;2.20;2.10;;;13.00;99.90;;;;;;5054280;28;20952;-78
2021/05/06 15:47:14;;;;;;;4.87;2.67;;;13.00;99.90;;;;;;5051258;28;20177;-79
2021/05/06 15:49:40;;;;;;;3.60;2.57;;;12.80;99.90;;;;;;5091622;28;20197;-79